sensor_id;sensor_type;location;lat;lon;timestamp;pressure;altitude;pressure_sealevel;temperature;humidity
51781;BME280;37844;57.126;24.288;2023-02-23T00:01:10;102400.28;;;-9.77;100.00
51781;BME280;37844;57.126;24.288;2023-02-23T00:03:35;102391.19;;;-9.84;100.00
51781;BME280;37844;57.126;24.288;2023-02-23T00:06:01;102390.06;;;-9.93;100.00
51781;BME280;37844;57.126;24.288;2023-02-23T00:08:27;102400.63;;;-9.82;100.00
51781;BME280;37844;57.126;24.288;2023-02-23T00:10:52;102396.56;;;-9.74;100.00
51781;BME280;37844;57.126;24.288;2023-02-23T00:13:22;102383.09;;;-9.47;100.00
51781;BME280;37844;57.126;24.288;2023-02-23T00:15:48;102395.59;;;-9.40;100.00
51781;BME280;37844;57.126;24.288;2023-02-23T00:18:13;102390.91;;;-9.58;100.00
51781;BME280;37844;57.126;24.288;2023-02-23T00:20:38;102386.06;;;-9.71;100.00
51781;BME280;37844;57.126;24.288;2023-02-23T00:23:08;102381.25;;;-9.70;100.00
51781;BME280;37844;57.126;24.288;2023-02-23T00:25:33;102377.63;;;-9.86;100.00
51781;BME280;37844;57.126;24.288;2023-02-23T00:28:03;102382.41;;;-9.88;100.00
51781;BME280;37844;57.126;24.288;2023-02-23T00:30:28;102383.13;;;-9.96;100.00
51781;BME280;37844;57.126;24.288;2023-02-23T00:32:54;102384.31;;;-9.99;100.00
51781;BME280;37844;57.126;24.288;2023-02-23T00:35:19;102373.22;;;-9.74;100.00
51781;BME280;37844;57.126;24.288;2023-02-23T00:37:48;102379.50;;;-9.56;100.00
51781;BME280;37844;57.126;24.288;2023-02-23T00:40:16;102377.56;;;-9.52;100.00
51781;BME280;37844;57.126;24.288;2023-02-23T00:42:45;102369.88;;;-9.61;100.00
51781;BME280;37844;57.126;24.288;2023-02-23T00:45:11;102363.97;;;-9.61;100.00
51781;BME280;37844;57.126;24.288;2023-02-23T00:47:37;102367.19;;;-9.62;100.00
51781;BME280;37844;57.126;24.288;2023-02-23T00:50:03;102361.84;;;-9.65;100.00
51781;BME280;37844;57.126;24.288;2023-02-23T00:52:29;102360.41;;;-9.70;100.00
51781;BME280;37844;57.126;24.288;2023-02-23T00:54:54;102357.16;;;-9.84;100.00
51781;BME280;37844;57.126;24.288;2023-02-23T00:57:20;102362.69;;;-9.79;100.00
51781;BME280;37844;57.126;24.288;2023-02-23T00:59:46;102359.44;;;-9.85;100.00
51781;BME280;37844;57.126;24.288;2023-02-23T01:02:12;102360.03;;;-9.73;100.00
51781;BME280;37844;57.126;24.288;2023-02-23T01:04:37;102369.97;;;-9.81;100.00
51781;BME280;37844;57.126;24.288;2023-02-23T01:07:02;102360.19;;;-9.79;100.00
51781;BME280;37844;57.126;24.288;2023-02-23T01:09:30;102365.00;;;-9.73;100.00
51781;BME280;37844;57.126;24.288;2023-02-23T01:11:56;102355.91;;;-9.73;100.00
51781;BME280;37844;57.126;24.288;2023-02-23T01:14:25;102358.25;;;-9.74;100.00
51781;BME280;37844;57.126;24.288;2023-02-23T01:16:51;102348.78;;;-9.77;100.00
51781;BME280;37844;57.126;24.288;2023-02-23T01:19:16;102358.28;;;-9.67;100.00
51781;BME280;37844;57.126;24.288;2023-02-23T01:21:41;102352.69;;;-9.86;100.00
51781;BME280;37844;57.126;24.288;2023-02-23T01:24:07;102350.91;;;-9.80;100.00
51781;BME280;37844;57.126;24.288;2023-02-23T01:26:33;102352.38;;;-9.75;100.00
51781;BME280;37844;57.126;24.288;2023-02-23T01:29:07;102352.41;;;-9.68;100.00
51781;BME280;37844;57.126;24.288;2023-02-23T01:31:40;102346.63;;;-9.88;100.00
51781;BME280;37844;57.126;24.288;2023-02-23T01:34:06;102346.44;;;-9.83;100.00
51781;BME280;37844;57.126;24.288;2023-02-23T01:36:32;102348.22;;;-9.89;100.00
51781;BME280;37844;57.126;24.288;2023-02-23T01:38:58;102348.53;;;-10.00;100.00
51781;BME280;37844;57.126;24.288;2023-02-23T01:41:24;102354.94;;;-10.02;100.00
51781;BME280;37844;57.126;24.288;2023-02-23T01:43:55;102345.19;;;-9.93;100.00
51781;BME280;37844;57.126;24.288;2023-02-23T01:46:21;102341.78;;;-9.94;100.00
51781;BME280;37844;57.126;24.288;2023-02-23T01:48:46;102340.88;;;-9.94;100.00
51781;BME280;37844;57.126;24.288;2023-02-23T01:51:13;102340.88;;;-9.94;100.00
51781;BME280;37844;57.126;24.288;2023-02-23T01:53:43;102348.69;;;-10.06;100.00
51781;BME280;37844;57.126;24.288;2023-02-23T01:56:10;102346.75;;;-10.01;100.00
51781;BME280;37844;57.126;24.288;2023-02-23T01:58:38;102344.22;;;-10.08;100.00
51781;BME280;37844;57.126;24.288;2023-02-23T02:01:05;102342.63;;;-10.08;100.00
51781;BME280;37844;57.126;24.288;2023-02-23T02:05:56;102341.97;;;-9.85;100.00
51781;BME280;37844;57.126;24.288;2023-02-23T02:08:22;102337.59;;;-9.66;100.00
51781;BME280;37844;57.126;24.288;2023-02-23T02:10:49;102332.97;;;-9.70;100.00
51781;BME280;37844;57.126;24.288;2023-02-23T02:13:20;102324.41;;;-9.65;100.00
51781;BME280;37844;57.126;24.288;2023-02-23T02:16:11;102326.53;;;-9.68;100.00
51781;BME280;37844;57.126;24.288;2023-02-23T02:23:52;102319.72;;;-9.84;100.00
51781;BME280;37844;57.126;24.288;2023-02-23T02:47:00;102285.56;;;-10.26;100.00
51781;BME280;37844;57.126;24.288;2023-02-23T02:49:31;102300.50;;;-10.33;100.00
51781;BME280;37844;57.126;24.288;2023-02-23T02:52:03;102298.03;;;-10.33;100.00
51781;BME280;37844;57.126;24.288;2023-02-23T02:54:37;102285.34;;;-10.28;100.00
51781;BME280;37844;57.126;24.288;2023-02-23T02:57:03;102284.31;;;-10.30;100.00
51781;BME280;37844;57.126;24.288;2023-02-23T02:59:30;102221.81;;;-10.73;100.00
51781;BME280;37844;57.126;24.288;2023-02-23T03:02:22;102283.25;;;-10.32;100.00
51781;BME280;37844;57.126;24.288;2023-02-23T03:05:13;102286.31;;;-10.20;100.00
51781;BME280;37844;57.126;24.288;2023-02-23T03:11:01;102287.19;;;-10.19;100.00
51781;BME280;37844;57.126;24.288;2023-02-23T03:19:58;102278.44;;;-10.23;100.00
51781;BME280;37844;57.126;24.288;2023-02-23T03:34:45;102267.22;;;-10.34;100.00
51781;BME280;37844;57.126;24.288;2023-02-23T03:37:30;102259.56;;;-10.28;100.00
51781;BME280;37844;57.126;24.288;2023-02-23T03:40:25;102263.09;;;-10.40;100.00
51781;BME280;37844;57.126;24.288;2023-02-23T03:43:12;102260.81;;;-10.39;100.00
51781;BME280;37844;57.126;24.288;2023-02-23T03:45:57;102254.91;;;-10.32;100.00
51781;BME280;37844;57.126;24.288;2023-02-23T03:48:42;102254.59;;;-10.28;100.00
51781;BME280;37844;57.126;24.288;2023-02-23T03:51:28;102245.31;;;-10.36;100.00
51781;BME280;37844;57.126;24.288;2023-02-23T03:54:16;102246.19;;;-10.43;100.00
51781;BME280;37844;57.126;24.288;2023-02-23T03:57:02;102239.56;;;-10.50;100.00
51781;BME280;37844;57.126;24.288;2023-02-23T03:59:50;102239.56;;;-10.50;100.00
51781;BME280;37844;57.126;24.288;2023-02-23T04:02:36;102241.06;;;-10.30;100.00
51781;BME280;37844;57.126;24.288;2023-02-23T04:05:21;102244.25;;;-10.31;100.00
51781;BME280;37844;57.126;24.288;2023-02-23T04:08:06;102235.91;;;-10.17;100.00
51781;BME280;37844;57.126;24.288;2023-02-23T04:10:57;102239.50;;;-10.08;100.00
51781;BME280;37844;57.126;24.288;2023-02-23T04:13:43;102237.16;;;-10.14;100.00
51781;BME280;37844;57.126;24.288;2023-02-23T04:16:10;102235.72;;;-10.19;100.00
51781;BME280;37844;57.126;24.288;2023-02-23T04:18:37;102236.59;;;-10.18;100.00
51781;BME280;37844;57.126;24.288;2023-02-23T04:21:03;102226.28;;;-10.21;100.00
51781;BME280;37844;57.126;24.288;2023-02-23T04:23:29;102221.84;;;-10.31;100.00
51781;BME280;37844;57.126;24.288;2023-02-23T04:25:54;102220.41;;;-10.36;100.00
51781;BME280;37844;57.126;24.288;2023-02-23T04:28:20;102223.38;;;-10.46;100.00
51781;BME280;37844;57.126;24.288;2023-02-23T04:30:46;102221.78;;;-10.46;100.00
51781;BME280;37844;57.126;24.288;2023-02-23T04:33:11;102227.47;;;-10.47;100.00
51781;BME280;37844;57.126;24.288;2023-02-23T04:35:37;102219.63;;;-10.50;100.00
51781;BME280;37844;57.126;24.288;2023-02-23T04:38:02;102222.47;;;-10.47;100.00
51781;BME280;37844;57.126;24.288;2023-02-23T04:40:28;102212.16;;;-10.50;100.00
51781;BME280;37844;57.126;24.288;2023-02-23T04:42:53;102210.47;;;-10.63;100.00
51781;BME280;37844;57.126;24.288;2023-02-23T04:45:19;102204.09;;;-10.61;100.00
51781;BME280;37844;57.126;24.288;2023-02-23T04:47:46;102207.69;;;-10.52;100.00
51781;BME280;37844;57.126;24.288;2023-02-23T04:50:11;102202.00;;;-10.44;100.00
51781;BME280;37844;57.126;24.288;2023-02-23T04:52:36;102211.28;;;-10.43;100.00
51781;BME280;37844;57.126;24.288;2023-02-23T04:55:04;102205.56;;;-10.49;100.00
51781;BME280;37844;57.126;24.288;2023-02-23T04:57:29;102193.09;;;-10.49;100.00
51781;BME280;37844;57.126;24.288;2023-02-23T04:59:55;102201.78;;;-10.60;100.00
51781;BME280;37844;57.126;24.288;2023-02-23T05:02:20;102192.16;;;-10.64;100.00
51781;BME280;37844;57.126;24.288;2023-02-23T05:04:45;102197.47;;;-10.68;100.00
51781;BME280;37844;57.126;24.288;2023-02-23T05:07:11;102185.72;;;-10.76;100.00
51781;BME280;37844;57.126;24.288;2023-02-23T05:09:36;102179.34;;;-10.67;100.00
51781;BME280;37844;57.126;24.288;2023-02-23T05:12:02;102179.88;;;-10.70;100.00
51781;BME280;37844;57.126;24.288;2023-02-23T05:14:27;102189.63;;;-10.71;100.00
51781;BME280;37844;57.126;24.288;2023-02-23T05:16:52;102173.94;;;-10.77;100.00
51781;BME280;37844;57.126;24.288;2023-02-23T05:19:18;102178.94;;;-10.70;100.00
51781;BME280;37844;57.126;24.288;2023-02-23T05:21:43;102176.84;;;-10.67;100.00
51781;BME280;37844;57.126;24.288;2023-02-23T05:24:09;102172.94;;;-10.65;100.00
51781;BME280;37844;57.126;24.288;2023-02-23T05:26:34;102179.38;;;-10.60;100.00
51781;BME280;37844;57.126;24.288;2023-02-23T05:29:00;102179.72;;;-10.57;100.00
51781;BME280;37844;57.126;24.288;2023-02-23T05:31:26;102175.63;;;-10.56;100.00
51781;BME280;37844;57.126;24.288;2023-02-23T05:33:51;102176.19;;;-10.52;100.00
51781;BME280;37844;57.126;24.288;2023-02-23T05:36:17;102166.97;;;-10.46;100.00
51781;BME280;37844;57.126;24.288;2023-02-23T05:38:43;102160.00;;;-10.55;100.00
51781;BME280;37844;57.126;24.288;2023-02-23T05:41:17;102163.72;;;-10.52;100.00
51781;BME280;37844;57.126;24.288;2023-02-23T05:43:43;102167.09;;;-10.51;100.00
51781;BME280;37844;57.126;24.288;2023-02-23T05:46:09;102159.28;;;-10.54;100.00
51781;BME280;37844;57.126;24.288;2023-02-23T05:48:35;102165.13;;;-10.54;100.00
51781;BME280;37844;57.126;24.288;2023-02-23T05:51:03;102171.19;;;-10.52;100.00
51781;BME280;37844;57.126;24.288;2023-02-23T05:53:29;102165.72;;;-10.35;100.00
51781;BME280;37844;57.126;24.288;2023-02-23T05:55:54;102162.69;;;-10.25;100.00
51781;BME280;37844;57.126;24.288;2023-02-23T05:58:20;102161.84;;;-10.04;100.00
51781;BME280;37844;57.126;24.288;2023-02-23T06:00:45;102163.44;;;-9.90;100.00
51781;BME280;37844;57.126;24.288;2023-02-23T06:03:10;102161.50;;;-9.86;100.00
51781;BME280;37844;57.126;24.288;2023-02-23T06:05:36;102160.28;;;-9.75;100.00
51781;BME280;37844;57.126;24.288;2023-02-23T06:08:01;102162.56;;;-9.55;100.00
51781;BME280;37844;57.126;24.288;2023-02-23T06:10:26;102163.97;;;-9.43;100.00
51781;BME280;37844;57.126;24.288;2023-02-23T06:12:52;102142.19;;;-9.22;100.00
51781;BME280;37844;57.126;24.288;2023-02-23T06:15:17;102136.47;;;-9.21;100.00
51781;BME280;37844;57.126;24.288;2023-02-23T06:17:42;102146.63;;;-9.12;100.00
51781;BME280;37844;57.126;24.288;2023-02-23T06:20:08;102141.06;;;-9.03;100.00
51781;BME280;37844;57.126;24.288;2023-02-23T06:22:33;102128.19;;;-8.91;100.00
51781;BME280;37844;57.126;24.288;2023-02-23T06:24:59;102136.78;;;-8.66;100.00
51781;BME280;37844;57.126;24.288;2023-02-23T06:27:24;102147.22;;;-8.47;100.00
51781;BME280;37844;57.126;24.288;2023-02-23T06:29:50;102129.63;;;-8.33;100.00
51781;BME280;37844;57.126;24.288;2023-02-23T06:32:15;102131.97;;;-8.12;100.00
51781;BME280;37844;57.126;24.288;2023-02-23T06:34:41;102143.72;;;-7.80;100.00
51781;BME280;37844;57.126;24.288;2023-02-23T06:37:06;102127.19;;;-7.71;100.00
51781;BME280;37844;57.126;24.288;2023-02-23T06:39:32;102122.28;;;-7.62;100.00
51781;BME280;37844;57.126;24.288;2023-02-23T06:41:57;102125.34;;;-7.65;100.00
51781;BME280;37844;57.126;24.288;2023-02-23T06:44:23;102120.28;;;-7.81;100.00
51781;BME280;37844;57.126;24.288;2023-02-23T06:46:48;102110.88;;;-8.06;100.00
51781;BME280;37844;57.126;24.288;2023-02-23T06:49:13;102103.03;;;-8.33;100.00
51781;BME280;37844;57.126;24.288;2023-02-23T06:51:39;102101.41;;;-8.55;100.00
51781;BME280;37844;57.126;24.288;2023-02-23T06:54:04;102111.03;;;-8.51;100.00
51781;BME280;37844;57.126;24.288;2023-02-23T06:56:29;102106.31;;;-8.78;100.00
51781;BME280;37844;57.126;24.288;2023-02-23T06:58:55;102107.16;;;-8.63;100.00
51781;BME280;37844;57.126;24.288;2023-02-23T07:01:20;102103.91;;;-8.55;100.00
51781;BME280;37844;57.126;24.288;2023-02-23T07:03:46;102107.84;;;-8.57;100.00
51781;BME280;37844;57.126;24.288;2023-02-23T07:06:11;102100.88;;;-8.60;100.00
51781;BME280;37844;57.126;24.288;2023-02-23T07:08:36;102085.28;;;-8.73;100.00
51781;BME280;37844;57.126;24.288;2023-02-23T07:11:06;102096.19;;;-8.80;100.00
51781;BME280;37844;57.126;24.288;2023-02-23T07:13:32;102102.44;;;-8.83;100.00
51781;BME280;37844;57.126;24.288;2023-02-23T07:15:57;102095.44;;;-8.79;100.00
51781;BME280;37844;57.126;24.288;2023-02-23T07:18:23;102113.16;;;-8.84;100.00
51781;BME280;37844;57.126;24.288;2023-02-23T07:20:48;102108.53;;;-8.88;100.00
51781;BME280;37844;57.126;24.288;2023-02-23T07:23:16;102103.75;;;-8.94;100.00
51781;BME280;37844;57.126;24.288;2023-02-23T07:25:41;102127.94;;;-8.79;100.00
51781;BME280;37844;57.126;24.288;2023-02-23T07:28:06;102115.22;;;-8.66;100.00
51781;BME280;37844;57.126;24.288;2023-02-23T07:30:31;102109.44;;;-8.58;100.00
51781;BME280;37844;57.126;24.288;2023-02-23T07:32:57;102108.19;;;-8.61;100.00
51781;BME280;37844;57.126;24.288;2023-02-23T07:35:22;102104.97;;;-8.53;100.00
51781;BME280;37844;57.126;24.288;2023-02-23T07:37:47;102074.78;;;-8.55;100.00
51781;BME280;37844;57.126;24.288;2023-02-23T07:40:13;102092.41;;;-8.46;100.00
51781;BME280;37844;57.126;24.288;2023-02-23T07:42:38;102094.69;;;-8.40;100.00
51781;BME280;37844;57.126;24.288;2023-02-23T07:45:04;102088.53;;;-8.35;100.00
51781;BME280;37844;57.126;24.288;2023-02-23T07:47:29;102090.72;;;-8.38;100.00
51781;BME280;37844;57.126;24.288;2023-02-23T07:49:58;102090.53;;;-8.33;100.00
51781;BME280;37844;57.126;24.288;2023-02-23T07:52:25;102075.06;;;-8.21;100.00
51781;BME280;37844;57.126;24.288;2023-02-23T07:54:51;102068.84;;;-8.25;100.00
51781;BME280;37844;57.126;24.288;2023-02-23T07:57:16;102065.59;;;-8.24;100.00
51781;BME280;37844;57.126;24.288;2023-02-23T07:59:41;102062.53;;;-8.21;100.00
51781;BME280;37844;57.126;24.288;2023-02-23T08:02:08;102053.53;;;-8.12;100.00
51781;BME280;37844;57.126;24.288;2023-02-23T08:04:34;102045.09;;;-8.05;100.00
51781;BME280;37844;57.126;24.288;2023-02-23T08:06:59;102056.66;;;-7.99;100.00
51781;BME280;37844;57.126;24.288;2023-02-23T08:09:24;102044.84;;;-8.00;100.00
51781;BME280;37844;57.126;24.288;2023-02-23T08:11:50;102033.09;;;-8.01;100.00
51781;BME280;37844;57.126;24.288;2023-02-23T08:14:15;102037.13;;;-7.94;100.00
51781;BME280;37844;57.126;24.288;2023-02-23T08:16:40;102039.06;;;-7.92;100.00
51781;BME280;37844;57.126;24.288;2023-02-23T08:19:06;102031.81;;;-7.81;100.00
51781;BME280;37844;57.126;24.288;2023-02-23T08:21:31;102031.09;;;-7.64;100.00
51781;BME280;37844;57.126;24.288;2023-02-23T08:23:56;102028.69;;;-7.56;100.00
51781;BME280;37844;57.126;24.288;2023-02-23T08:26:22;102032.75;;;-7.49;100.00
51781;BME280;37844;57.126;24.288;2023-02-23T08:28:49;102020.19;;;-7.33;100.00
51781;BME280;37844;57.126;24.288;2023-02-23T08:31:14;102027.88;;;-7.32;100.00
51781;BME280;37844;57.126;24.288;2023-02-23T08:33:42;102012.75;;;-7.25;100.00
51781;BME280;37844;57.126;24.288;2023-02-23T08:36:08;102012.34;;;-7.05;100.00
51781;BME280;37844;57.126;24.288;2023-02-23T08:38:33;102001.69;;;-6.86;100.00
51781;BME280;37844;57.126;24.288;2023-02-23T08:41:02;101999.97;;;-6.54;100.00
51781;BME280;37844;57.126;24.288;2023-02-23T08:43:28;101980.50;;;-6.48;100.00
51781;BME280;37844;57.126;24.288;2023-02-23T08:45:53;102003.47;;;-6.27;100.00
51781;BME280;37844;57.126;24.288;2023-02-23T08:48:18;101996.16;;;-5.91;100.00
51781;BME280;37844;57.126;24.288;2023-02-23T08:50:46;102002.75;;;-5.49;100.00
51781;BME280;37844;57.126;24.288;2023-02-23T08:53:16;101998.59;;;-5.32;100.00
51781;BME280;37844;57.126;24.288;2023-02-23T09:04:33;101989.13;;;-5.34;100.00
51781;BME280;37844;57.126;24.288;2023-02-23T09:07:08;101977.19;;;-5.45;100.00
51781;BME280;37844;57.126;24.288;2023-02-23T09:09:35;101973.19;;;-5.43;100.00
51781;BME280;37844;57.126;24.288;2023-02-23T09:12:00;101972.13;;;-5.37;100.00
51781;BME280;37844;57.126;24.288;2023-02-23T09:14:26;101967.13;;;-5.37;100.00
51781;BME280;37844;57.126;24.288;2023-02-23T09:16:52;101963.41;;;-5.23;100.00
51781;BME280;37844;57.126;24.288;2023-02-23T09:19:17;101965.38;;;-5.29;100.00
51781;BME280;37844;57.126;24.288;2023-02-23T09:21:43;101968.44;;;-5.32;100.00
51781;BME280;37844;57.126;24.288;2023-02-23T09:24:08;101972.91;;;-5.29;100.00
51781;BME280;37844;57.126;24.288;2023-02-23T09:26:33;101959.44;;;-5.21;100.00
51781;BME280;37844;57.126;24.288;2023-02-23T09:29:00;101955.72;;;-5.16;100.00
51781;BME280;37844;57.126;24.288;2023-02-23T09:31:25;101950.09;;;-5.13;100.00
51781;BME280;37844;57.126;24.288;2023-02-23T09:33:51;101956.59;;;-5.06;100.00
51781;BME280;37844;57.126;24.288;2023-02-23T09:36:18;101940.91;;;-4.95;100.00
51781;BME280;37844;57.126;24.288;2023-02-23T09:38:45;101937.63;;;-4.85;100.00
51781;BME280;37844;57.126;24.288;2023-02-23T09:43:58;101930.09;;;-4.94;100.00
51781;BME280;37844;57.126;24.288;2023-02-23T09:48:57;101931.13;;;-4.92;100.00
51781;BME280;37844;57.126;24.288;2023-02-23T09:51:25;101931.13;;;-4.83;100.00
51781;BME280;37844;57.126;24.288;2023-02-23T09:53:54;101928.53;;;-4.75;100.00
51781;BME280;37844;57.126;24.288;2023-02-23T09:56:27;101917.75;;;-4.65;100.00
51781;BME280;37844;57.126;24.288;2023-02-23T09:58:53;101930.16;;;-4.66;100.00
51781;BME280;37844;57.126;24.288;2023-02-23T10:01:39;101915.78;;;-4.59;100.00
51781;BME280;37844;57.126;24.288;2023-02-23T10:06:35;101915.22;;;-4.37;100.00
51781;BME280;37844;57.126;24.288;2023-02-23T10:09:10;101915.84;;;-4.40;100.00
51781;BME280;37844;57.126;24.288;2023-02-23T10:11:41;101908.44;;;-4.38;100.00
51781;BME280;37844;57.126;24.288;2023-02-23T10:17:00;101893.19;;;-4.40;100.00
51781;BME280;37844;57.126;24.288;2023-02-23T10:19:33;101899.81;;;-4.32;100.00
51781;BME280;37844;57.126;24.288;2023-02-23T10:22:02;101882.75;;;-4.26;100.00
51781;BME280;37844;57.126;24.288;2023-02-23T10:27:09;101882.50;;;-4.10;100.00
51781;BME280;37844;57.126;24.288;2023-02-23T10:29:40;101876.50;;;-4.01;100.00
51781;BME280;37844;57.126;24.288;2023-02-23T10:34:52;101869.03;;;-3.91;100.00
51781;BME280;37844;57.126;24.288;2023-02-23T10:37:18;101878.19;;;-3.92;100.00
51781;BME280;37844;57.126;24.288;2023-02-23T10:39:43;101853.50;;;-3.96;100.00
51781;BME280;37844;57.126;24.288;2023-02-23T10:42:13;101860.72;;;-3.90;100.00
51781;BME280;37844;57.126;24.288;2023-02-23T10:44:41;101842.00;;;-3.84;100.00
51781;BME280;37844;57.126;24.288;2023-02-23T10:47:08;101844.78;;;-3.80;100.00
51781;BME280;37844;57.126;24.288;2023-02-23T10:49:54;101842.00;;;-3.65;100.00
51781;BME280;37844;57.126;24.288;2023-02-23T10:54:51;101820.16;;;-3.74;100.00
51781;BME280;37844;57.126;24.288;2023-02-23T10:57:27;101819.06;;;-3.68;100.00
51781;BME280;37844;57.126;24.288;2023-02-23T11:02:34;101812.25;;;-3.58;100.00
51781;BME280;37844;57.126;24.288;2023-02-23T11:05:03;101791.38;;;-3.57;100.00
51781;BME280;37844;57.126;24.288;2023-02-23T11:07:30;101795.03;;;-3.54;100.00
51781;BME280;37844;57.126;24.288;2023-02-23T11:09:59;101789.66;;;-3.48;100.00
51781;BME280;37844;57.126;24.288;2023-02-23T11:12:42;101782.47;;;-3.44;100.00
51781;BME280;37844;57.126;24.288;2023-02-23T11:17:58;101778.41;;;-3.52;100.00
51781;BME280;37844;57.126;24.288;2023-02-23T11:22:49;101771.38;;;-3.46;100.00
51781;BME280;37844;57.126;24.288;2023-02-23T11:25:19;101765.19;;;-3.49;100.00
51781;BME280;37844;57.126;24.288;2023-02-23T11:27:48;101751.31;;;-3.44;100.00
51781;BME280;37844;57.126;24.288;2023-02-23T11:30:15;101748.84;;;-3.34;100.00
51781;BME280;37844;57.126;24.288;2023-02-23T11:32:44;101750.75;;;-3.31;100.00
51781;BME280;37844;57.126;24.288;2023-02-23T11:37:46;101737.66;;;-3.27;100.00
51781;BME280;37844;57.126;24.288;2023-02-23T11:42:50;101724.44;;;-3.14;100.00
51781;BME280;37844;57.126;24.288;2023-02-23T11:45:18;101728.47;;;-3.16;100.00
51781;BME280;37844;57.126;24.288;2023-02-23T11:47:46;101713.72;;;-3.22;100.00
51781;BME280;37844;57.126;24.288;2023-02-23T11:50:19;101717.63;;;-3.15;100.00
51781;BME280;37844;57.126;24.288;2023-02-23T11:52:45;101708.44;;;-3.15;100.00
51781;BME280;37844;57.126;24.288;2023-02-23T11:55:15;101707.31;;;-3.08;100.00
51781;BME280;37844;57.126;24.288;2023-02-23T11:57:42;101705.66;;;-3.08;100.00
51781;BME280;37844;57.126;24.288;2023-02-23T12:00:09;101704.13;;;-3.16;100.00
51781;BME280;37844;57.126;24.288;2023-02-23T12:02:39;101704.00;;;-3.07;100.00
51781;BME280;37844;57.126;24.288;2023-02-23T12:16:03;101672.97;;;-2.86;100.00
51781;BME280;37844;57.126;24.288;2023-02-23T12:20:53;101665.03;;;-2.90;100.00
51781;BME280;37844;57.126;24.288;2023-02-23T12:23:27;101667.31;;;-2.83;100.00
51781;BME280;37844;57.126;24.288;2023-02-23T12:28:49;101646.47;;;-2.81;100.00
51781;BME280;37844;57.126;24.288;2023-02-23T12:31:22;101649.00;;;-2.81;100.00
51781;BME280;37844;57.126;24.288;2023-02-23T12:33:57;101650.63;;;-2.71;100.00
51781;BME280;37844;57.126;24.288;2023-02-23T12:39:03;101631.09;;;-2.63;100.00
51781;BME280;37844;57.126;24.288;2023-02-23T12:41:34;101623.75;;;-2.60;100.00
51781;BME280;37844;57.126;24.288;2023-02-23T12:44:07;101616.03;;;-2.62;100.00
51781;BME280;37844;57.126;24.288;2023-02-23T12:46:44;101614.03;;;-2.66;100.00
51781;BME280;37844;57.126;24.288;2023-02-23T12:51:58;101600.63;;;-2.54;100.00
51781;BME280;37844;57.126;24.288;2023-02-23T12:54:26;101584.75;;;-2.53;100.00
51781;BME280;37844;57.126;24.288;2023-02-23T12:59:42;101586.03;;;-2.59;100.00
51781;BME280;37844;57.126;24.288;2023-02-23T13:12:13;101556.00;;;-2.33;100.00
51781;BME280;37844;57.126;24.288;2023-02-23T13:15:29;101548.78;;;-2.29;100.00
51781;BME280;37844;57.126;24.288;2023-02-23T13:20:20;101536.94;;;-2.30;100.00
51781;BME280;37844;57.126;24.288;2023-02-23T13:25:27;101532.47;;;-2.22;100.00
51781;BME280;37844;57.126;24.288;2023-02-23T13:27:58;101529.50;;;-2.17;100.00
51781;BME280;37844;57.126;24.288;2023-02-23T13:30:25;101514.31;;;-2.06;100.00
51781;BME280;37844;57.126;24.288;2023-02-23T13:32:50;101510.06;;;-1.96;100.00
51781;BME280;37844;57.126;24.288;2023-02-23T13:35:16;101503.28;;;-1.85;100.00
51781;BME280;37844;57.126;24.288;2023-02-23T13:43:41;101486.44;;;-1.96;100.00
51781;BME280;37844;57.126;24.288;2023-02-23T13:51:19;101482.69;;;-2.01;100.00
51781;BME280;37844;57.126;24.288;2023-02-23T13:53:46;101469.28;;;-2.00;100.00
51781;BME280;37844;57.126;24.288;2023-02-23T13:56:22;101463.66;;;-2.08;100.00
51781;BME280;37844;57.126;24.288;2023-02-23T13:58:58;101465.72;;;-2.14;100.00
51781;BME280;37844;57.126;24.288;2023-02-23T14:03:54;101448.25;;;-2.23;100.00
51781;BME280;37844;57.126;24.288;2023-02-23T14:06:21;101454.00;;;-2.14;100.00
51781;BME280;37844;57.126;24.288;2023-02-23T14:09:06;101450.25;;;-2.07;100.00
51781;BME280;37844;57.126;24.288;2023-02-23T14:11:51;101447.50;;;-2.10;100.00
51781;BME280;37844;57.126;24.288;2023-02-23T14:22:24;101429.16;;;-2.19;100.00
51781;BME280;37844;57.126;24.288;2023-02-23T14:27:37;101414.94;;;-2.29;100.00
51781;BME280;37844;57.126;24.288;2023-02-23T14:32:41;101414.16;;;-2.28;100.00
51781;BME280;37844;57.126;24.288;2023-02-23T14:37:55;101406.69;;;-2.38;100.00
51781;BME280;37844;57.126;24.288;2023-02-23T14:40:23;101398.22;;;-2.39;100.00
51781;BME280;37844;57.126;24.288;2023-02-23T14:42:56;101395.94;;;-2.36;100.00
51781;BME280;37844;57.126;24.288;2023-02-23T14:45:22;101392.09;;;-2.30;100.00
51781;BME280;37844;57.126;24.288;2023-02-23T14:48:03;101395.88;;;-2.25;100.00
51781;BME280;37844;57.126;24.288;2023-02-23T14:50:33;101384.53;;;-2.30;100.00
51781;BME280;37844;57.126;24.288;2023-02-23T14:52:59;101379.81;;;-2.26;100.00
51781;BME280;37844;57.126;24.288;2023-02-23T14:55:31;101374.84;;;-2.36;100.00
51781;BME280;37844;57.126;24.288;2023-02-23T14:57:59;101372.56;;;-2.33;100.00
51781;BME280;37844;57.126;24.288;2023-02-23T15:00:26;101363.97;;;-2.35;100.00
51781;BME280;37844;57.126;24.288;2023-02-23T15:02:53;101366.63;;;-2.33;100.00
51781;BME280;37844;57.126;24.288;2023-02-23T15:05:20;101368.69;;;-2.40;100.00
51781;BME280;37844;57.126;24.288;2023-02-23T15:07:46;101356.97;;;-2.39;100.00
51781;BME280;37844;57.126;24.288;2023-02-23T15:10:19;101356.06;;;-2.40;100.00
51781;BME280;37844;57.126;24.288;2023-02-23T15:12:46;101352.34;;;-2.33;100.00
51781;BME280;37844;57.126;24.288;2023-02-23T15:15:14;101348.84;;;-2.35;100.00